sensor_id;sensor_type;location;lat;lon;timestamp;P1;durP1;ratioP1;P2;durP2;ratioP2
10863;SDS011;5485;37.558;126.950;2023-09-19T00:00:43;17.80;;;15.98;;
10863;SDS011;5485;37.558;126.950;2023-09-19T00:03:12;17.27;;;15.52;;
10863;SDS011;5485;37.558;126.950;2023-09-19T00:05:39;19.25;;;17.48;;
10863;SDS011;5485;37.558;126.950;2023-09-19T00:08:09;17.42;;;15.82;;
10863;SDS011;5485;37.558;126.950;2023-09-19T00:10:38;20.55;;;18.55;;
10863;SDS011;5485;37.558;126.950;2023-09-19T00:13:06;21.48;;;19.67;;
10863;SDS011;5485;37.558;126.950;2023-09-19T00:15:39;20.02;;;18.05;;
10863;SDS011;5485;37.558;126.950;2023-09-19T00:18:17;20.52;;;18.67;;
10863;SDS011;5485;37.558;126.950;2023-09-19T00:20:47;17.10;;;15.50;;
10863;SDS011;5485;37.558;126.950;2023-09-19T00:23:14;25.73;;;17.40;;
10863;SDS011;5485;37.558;126.950;2023-09-19T00:25:41;19.17;;;16.77;;
10863;SDS011;5485;37.558;126.950;2023-09-19T00:28:08;20.35;;;18.15;;
10863;SDS011;5485;37.558;126.950;2023-09-19T00:30:35;18.15;;;16.42;;
10863;SDS011;5485;37.558;126.950;2023-09-19T00:33:04;20.17;;;18.25;;
10863;SDS011;5485;37.558;126.950;2023-09-19T00:35:33;21.60;;;19.50;;
10863;SDS011;5485;37.558;126.950;2023-09-19T00:38:00;18.17;;;16.27;;
10863;SDS011;5485;37.558;126.950;2023-09-19T00:40:27;20.13;;;16.05;;
10863;SDS011;5485;37.558;126.950;2023-09-19T00:42:57;18.33;;;16.73;;
10863;SDS011;5485;37.558;126.950;2023-09-19T00:45:27;17.52;;;15.95;;
10863;SDS011;5485;37.558;126.950;2023-09-19T00:47:54;16.83;;;15.10;;
10863;SDS011;5485;37.558;126.950;2023-09-19T00:50:32;16.75;;;15.10;;
10863;SDS011;5485;37.558;126.950;2023-09-19T00:52:59;15.68;;;14.00;;
10863;SDS011;5485;37.558;126.950;2023-09-19T00:55:26;15.20;;;13.90;;
10863;SDS011;5485;37.558;126.950;2023-09-19T00:57:58;16.15;;;14.52;;
10863;SDS011;5485;37.558;126.950;2023-09-19T01:00:25;14.30;;;13.00;;
10863;SDS011;5485;37.558;126.950;2023-09-19T01:02:52;15.18;;;13.73;;
10863;SDS011;5485;37.558;126.950;2023-09-19T01:05:19;16.73;;;15.23;;
10863;SDS011;5485;37.558;126.950;2023-09-19T01:07:46;13.25;;;12.07;;
10863;SDS011;5485;37.558;126.950;2023-09-19T01:10:23;15.20;;;13.85;;
10863;SDS011;5485;37.558;126.950;2023-09-19T01:13:03;13.77;;;12.55;;
10863;SDS011;5485;37.558;126.950;2023-09-19T01:16:01;13.93;;;12.63;;
10863;SDS011;5485;37.558;126.950;2023-09-19T01:18:43;16.88;;;13.43;;
10863;SDS011;5485;37.558;126.950;2023-09-19T01:27:06;15.02;;;13.63;;
10863;SDS011;5485;37.558;126.950;2023-09-19T01:29:43;13.63;;;12.32;;
10863;SDS011;5485;37.558;126.950;2023-09-19T01:32:31;14.30;;;12.90;;
10863;SDS011;5485;37.558;126.950;2023-09-19T01:34:58;13.63;;;12.30;;
10863;SDS011;5485;37.558;126.950;2023-09-19T01:37:29;14.77;;;13.27;;
10863;SDS011;5485;37.558;126.950;2023-09-19T01:39:58;17.13;;;15.35;;
10863;SDS011;5485;37.558;126.950;2023-09-19T01:51:00;15.88;;;14.35;;
10863;SDS011;5485;37.558;126.950;2023-09-19T01:53:40;22.73;;;20.38;;
10863;SDS011;5485;37.558;126.950;2023-09-19T01:56:21;22.48;;;20.35;;
10863;SDS011;5485;37.558;126.950;2023-09-19T01:58:56;19.85;;;18.08;;
10863;SDS011;5485;37.558;126.950;2023-09-19T02:01:30;22.48;;;20.25;;
10863;SDS011;5485;37.558;126.950;2023-09-19T02:03:58;20.40;;;18.70;;
10863;SDS011;5485;37.558;126.950;2023-09-19T02:06:25;26.25;;;24.05;;
10863;SDS011;5485;37.558;126.950;2023-09-19T02:08:54;21.40;;;19.50;;
10863;SDS011;5485;37.558;126.950;2023-09-19T02:11:21;23.90;;;21.35;;
10863;SDS011;5485;37.558;126.950;2023-09-19T02:13:49;22.80;;;20.40;;
10863;SDS011;5485;37.558;126.950;2023-09-19T02:16:20;25.67;;;22.85;;
10863;SDS011;5485;37.558;126.950;2023-09-19T02:18:50;24.17;;;21.73;;
10863;SDS011;5485;37.558;126.950;2023-09-19T02:21:17;21.63;;;19.63;;
10863;SDS011;5485;37.558;126.950;2023-09-19T02:23:48;23.58;;;21.40;;
10863;SDS011;5485;37.558;126.950;2023-09-19T02:26:14;24.83;;;22.63;;
10863;SDS011;5485;37.558;126.950;2023-09-19T02:28:41;25.40;;;22.33;;
10863;SDS011;5485;37.558;126.950;2023-09-19T02:31:08;27.02;;;24.63;;
10863;SDS011;5485;37.558;126.950;2023-09-19T02:33:36;22.42;;;20.40;;
10863;SDS011;5485;37.558;126.950;2023-09-19T02:36:03;22.25;;;20.35;;
10863;SDS011;5485;37.558;126.950;2023-09-19T02:38:31;22.77;;;20.80;;
10863;SDS011;5485;37.558;126.950;2023-09-19T02:40:59;21.65;;;19.80;;
10863;SDS011;5485;37.558;126.950;2023-09-19T02:43:25;25.92;;;23.65;;
10863;SDS011;5485;37.558;126.950;2023-09-19T02:45:53;24.95;;;22.70;;
10863;SDS011;5485;37.558;126.950;2023-09-19T02:48:26;26.52;;;23.92;;
10863;SDS011;5485;37.558;126.950;2023-09-19T02:50:57;25.83;;;23.63;;
10863;SDS011;5485;37.558;126.950;2023-09-19T02:53:24;24.42;;;22.35;;
10863;SDS011;5485;37.558;126.950;2023-09-19T02:55:51;27.67;;;25.20;;
10863;SDS011;5485;37.558;126.950;2023-09-19T02:58:18;27.33;;;24.88;;
10863;SDS011;5485;37.558;126.950;2023-09-19T03:00:45;24.67;;;22.65;;
10863;SDS011;5485;37.558;126.950;2023-09-19T03:03:13;26.67;;;24.27;;
10863;SDS011;5485;37.558;126.950;2023-09-19T03:05:41;27.77;;;25.38;;
10863;SDS011;5485;37.558;126.950;2023-09-19T03:08:12;27.40;;;24.75;;
10863;SDS011;5485;37.558;126.950;2023-09-19T03:10:45;28.42;;;25.60;;
10863;SDS011;5485;37.558;126.950;2023-09-19T03:13:15;30.35;;;27.40;;
10863;SDS011;5485;37.558;126.950;2023-09-19T03:15:44;30.23;;;27.48;;
10863;SDS011;5485;37.558;126.950;2023-09-19T03:18:12;28.55;;;26.00;;
10863;SDS011;5485;37.558;126.950;2023-09-19T03:20:39;33.97;;;30.75;;
10863;SDS011;5485;37.558;126.950;2023-09-19T03:23:06;31.63;;;28.63;;
10863;SDS011;5485;37.558;126.950;2023-09-19T03:25:34;30.30;;;27.63;;
10863;SDS011;5485;37.558;126.950;2023-09-19T03:28:04;29.50;;;26.70;;
10863;SDS011;5485;37.558;126.950;2023-09-19T03:30:31;27.80;;;25.30;;
10863;SDS011;5485;37.558;126.950;2023-09-19T03:32:59;26.52;;;24.13;;
10863;SDS011;5485;37.558;126.950;2023-09-19T03:35:26;25.48;;;23.25;;
10863;SDS011;5485;37.558;126.950;2023-09-19T03:37:53;28.20;;;25.55;;
10863;SDS011;5485;37.558;126.950;2023-09-19T03:40:20;26.95;;;24.52;;
10863;SDS011;5485;37.558;126.950;2023-09-19T03:42:48;26.75;;;23.85;;
10863;SDS011;5485;37.558;126.950;2023-09-19T03:45:15;24.58;;;22.23;;
10863;SDS011;5485;37.558;126.950;2023-09-19T03:47:43;26.27;;;23.88;;
10863;SDS011;5485;37.558;126.950;2023-09-19T03:50:13;27.67;;;24.88;;
10863;SDS011;5485;37.558;126.950;2023-09-19T03:52:45;26.40;;;24.00;;
10863;SDS011;5485;37.558;126.950;2023-09-19T03:55:12;24.70;;;22.13;;
10863;SDS011;5485;37.558;126.950;2023-09-19T03:57:39;25.95;;;23.42;;
10863;SDS011;5485;37.558;126.950;2023-09-19T04:00:13;26.20;;;23.75;;
10863;SDS011;5485;37.558;126.950;2023-09-19T04:02:43;26.40;;;23.98;;
10863;SDS011;5485;37.558;126.950;2023-09-19T04:05:11;25.92;;;23.63;;
10863;SDS011;5485;37.558;126.950;2023-09-19T04:07:38;24.63;;;22.52;;
10863;SDS011;5485;37.558;126.950;2023-09-19T04:10:08;26.88;;;24.35;;
10863;SDS011;5485;37.558;126.950;2023-09-19T04:12:37;27.67;;;25.17;;
10863;SDS011;5485;37.558;126.950;2023-09-19T04:15:07;27.13;;;24.70;;
10863;SDS011;5485;37.558;126.950;2023-09-19T04:17:36;27.45;;;24.73;;
10863;SDS011;5485;37.558;126.950;2023-09-19T04:20:09;23.75;;;21.48;;
10863;SDS011;5485;37.558;126.950;2023-09-19T04:22:38;25.17;;;22.80;;
10863;SDS011;5485;37.558;126.950;2023-09-19T04:25:05;25.58;;;23.30;;
10863;SDS011;5485;37.558;126.950;2023-09-19T04:27:32;25.45;;;22.98;;
10863;SDS011;5485;37.558;126.950;2023-09-19T04:30:06;23.33;;;20.73;;
10863;SDS011;5485;37.558;126.950;2023-09-19T04:32:38;23.92;;;21.73;;
10863;SDS011;5485;37.558;126.950;2023-09-19T04:35:08;23.88;;;21.67;;
10863;SDS011;5485;37.558;126.950;2023-09-19T04:37:37;23.63;;;21.52;;
10863;SDS011;5485;37.558;126.950;2023-09-19T04:40:08;24.15;;;21.95;;
10863;SDS011;5485;37.558;126.950;2023-09-19T04:42:43;25.25;;;22.73;;
10863;SDS011;5485;37.558;126.950;2023-09-19T04:45:10;24.25;;;22.13;;
10863;SDS011;5485;37.558;126.950;2023-09-19T04:47:40;23.13;;;20.92;;
10863;SDS011;5485;37.558;126.950;2023-09-19T04:50:09;24.35;;;22.17;;
10863;SDS011;5485;37.558;126.950;2023-09-19T04:52:38;23.85;;;21.90;;
10863;SDS011;5485;37.558;126.950;2023-09-19T04:55:13;23.98;;;21.88;;
10863;SDS011;5485;37.558;126.950;2023-09-19T04:57:44;24.52;;;22.50;;
10863;SDS011;5485;37.558;126.950;2023-09-19T05:00:15;24.50;;;22.30;;
10863;SDS011;5485;37.558;126.950;2023-09-19T05:02:45;23.00;;;21.05;;
10863;SDS011;5485;37.558;126.950;2023-09-19T05:05:14;21.17;;;19.38;;
10863;SDS011;5485;37.558;126.950;2023-09-19T05:07:43;23.15;;;21.13;;
10863;SDS011;5485;37.558;126.950;2023-09-19T05:10:10;21.45;;;19.65;;
10863;SDS011;5485;37.558;126.950;2023-09-19T05:12:38;23.13;;;20.73;;
10863;SDS011;5485;37.558;126.950;2023-09-19T05:15:06;22.48;;;20.40;;
10863;SDS011;5485;37.558;126.950;2023-09-19T05:17:34;20.60;;;18.58;;
10863;SDS011;5485;37.558;126.950;2023-09-19T05:20:02;21.40;;;19.60;;
10863;SDS011;5485;37.558;126.950;2023-09-19T05:22:49;22.05;;;20.23;;
10863;SDS011;5485;37.558;126.950;2023-09-19T05:25:16;22.67;;;20.30;;
10863;SDS011;5485;37.558;126.950;2023-09-19T05:27:44;20.98;;;19.15;;
10863;SDS011;5485;37.558;126.950;2023-09-19T05:30:11;20.23;;;18.33;;
10863;SDS011;5485;37.558;126.950;2023-09-19T05:32:40;20.90;;;18.88;;
10863;SDS011;5485;37.558;126.950;2023-09-19T05:35:11;19.15;;;17.35;;
10863;SDS011;5485;37.558;126.950;2023-09-19T05:37:38;19.15;;;17.42;;
10863;SDS011;5485;37.558;126.950;2023-09-19T05:40:05;18.67;;;17.08;;
10863;SDS011;5485;37.558;126.950;2023-09-19T05:42:37;19.38;;;17.50;;
10863;SDS011;5485;37.558;126.950;2023-09-19T05:45:05;20.40;;;18.70;;
10863;SDS011;5485;37.558;126.950;2023-09-19T05:47:32;19.15;;;17.65;;
10863;SDS011;5485;37.558;126.950;2023-09-19T05:49:59;20.60;;;18.73;;
10863;SDS011;5485;37.558;126.950;2023-09-19T05:52:28;21.10;;;19.05;;
10863;SDS011;5485;37.558;126.950;2023-09-19T05:54:55;20.52;;;18.85;;
10863;SDS011;5485;37.558;126.950;2023-09-19T05:57:22;20.25;;;18.38;;
10863;SDS011;5485;37.558;126.950;2023-09-19T05:59:50;21.17;;;19.13;;
10863;SDS011;5485;37.558;126.950;2023-09-19T06:02:17;21.65;;;19.67;;
10863;SDS011;5485;37.558;126.950;2023-09-19T06:04:45;20.40;;;18.42;;
10863;SDS011;5485;37.558;126.950;2023-09-19T06:07:12;20.55;;;18.60;;
10863;SDS011;5485;37.558;126.950;2023-09-19T06:09:43;22.67;;;20.67;;
10863;SDS011;5485;37.558;126.950;2023-09-19T06:12:10;20.30;;;18.48;;
10863;SDS011;5485;37.558;126.950;2023-09-19T06:14:39;20.65;;;18.85;;
10863;SDS011;5485;37.558;126.950;2023-09-19T06:17:06;20.15;;;18.08;;
10863;SDS011;5485;37.558;126.950;2023-09-19T06:19:32;19.40;;;17.65;;
10863;SDS011;5485;37.558;126.950;2023-09-19T06:21:59;20.48;;;18.77;;
10863;SDS011;5485;37.558;126.950;2023-09-19T06:24:26;21.90;;;18.35;;
10863;SDS011;5485;37.558;126.950;2023-09-19T06:26:53;19.88;;;17.85;;
10863;SDS011;5485;37.558;126.950;2023-09-19T06:29:22;19.85;;;17.95;;
10863;SDS011;5485;37.558;126.950;2023-09-19T06:31:48;18.73;;;16.95;;
10863;SDS011;5485;37.558;126.950;2023-09-19T06:34:16;18.77;;;17.13;;
10863;SDS011;5485;37.558;126.950;2023-09-19T06:36:43;19.42;;;17.75;;
10863;SDS011;5485;37.558;126.950;2023-09-19T06:39:10;19.58;;;17.75;;
10863;SDS011;5485;37.558;126.950;2023-09-19T06:41:37;21.13;;;18.95;;
10863;SDS011;5485;37.558;126.950;2023-09-19T06:44:04;20.55;;;18.85;;
10863;SDS011;5485;37.558;126.950;2023-09-19T06:46:31;19.73;;;17.80;;
10863;SDS011;5485;37.558;126.950;2023-09-19T06:49:01;20.48;;;18.70;;
10863;SDS011;5485;37.558;126.950;2023-09-19T06:51:32;19.20;;;17.45;;
10863;SDS011;5485;37.558;126.950;2023-09-19T06:54:02;19.30;;;17.58;;
10863;SDS011;5485;37.558;126.950;2023-09-19T06:56:30;21.60;;;19.52;;
10863;SDS011;5485;37.558;126.950;2023-09-19T06:59:00;20.67;;;18.70;;
10863;SDS011;5485;37.558;126.950;2023-09-19T07:01:28;21.42;;;19.20;;
10863;SDS011;5485;37.558;126.950;2023-09-19T07:03:57;21.30;;;19.10;;
10863;SDS011;5485;37.558;126.950;2023-09-19T07:06:24;20.60;;;18.80;;
10863;SDS011;5485;37.558;126.950;2023-09-19T07:08:52;22.98;;;20.63;;
10863;SDS011;5485;37.558;126.950;2023-09-19T07:11:22;21.48;;;19.55;;
10863;SDS011;5485;37.558;126.950;2023-09-19T07:13:49;22.65;;;20.30;;
10863;SDS011;5485;37.558;126.950;2023-09-19T07:16:16;21.20;;;19.15;;
10863;SDS011;5485;37.558;126.950;2023-09-19T07:19:01;20.42;;;18.55;;
10863;SDS011;5485;37.558;126.950;2023-09-19T07:21:28;22.30;;;19.90;;
10863;SDS011;5485;37.558;126.950;2023-09-19T07:23:55;21.30;;;19.13;;
10863;SDS011;5485;37.558;126.950;2023-09-19T07:26:22;20.20;;;18.33;;
10863;SDS011;5485;37.558;126.950;2023-09-19T07:28:49;19.88;;;18.15;;
10863;SDS011;5485;37.558;126.950;2023-09-19T07:31:18;20.55;;;18.55;;
10863;SDS011;5485;37.558;126.950;2023-09-19T07:33:45;19.83;;;18.02;;
10863;SDS011;5485;37.558;126.950;2023-09-19T07:36:12;19.13;;;17.20;;
10863;SDS011;5485;37.558;126.950;2023-09-19T07:38:39;19.10;;;17.20;;
10863;SDS011;5485;37.558;126.950;2023-09-19T07:41:07;18.48;;;16.40;;
10863;SDS011;5485;37.558;126.950;2023-09-19T07:43:37;19.75;;;17.95;;
10863;SDS011;5485;37.558;126.950;2023-09-19T07:46:09;20.67;;;18.50;;
10863;SDS011;5485;37.558;126.950;2023-09-19T07:48:37;19.88;;;17.65;;
10863;SDS011;5485;37.558;126.950;2023-09-19T07:51:07;19.10;;;17.15;;
10863;SDS011;5485;37.558;126.950;2023-09-19T07:53:35;19.25;;;17.52;;
10863;SDS011;5485;37.558;126.950;2023-09-19T07:56:06;19.77;;;17.77;;
10863;SDS011;5485;37.558;126.950;2023-09-19T07:58:35;19.00;;;17.00;;
10863;SDS011;5485;37.558;126.950;2023-09-19T08:01:08;19.63;;;17.33;;
10863;SDS011;5485;37.558;126.950;2023-09-19T08:03:38;21.42;;;17.88;;
10863;SDS011;5485;37.558;126.950;2023-09-19T08:06:07;21.70;;;18.38;;
10863;SDS011;5485;37.558;126.950;2023-09-19T08:08:37;21.42;;;18.77;;
10863;SDS011;5485;37.558;126.950;2023-09-19T08:11:06;19.70;;;17.98;;
10863;SDS011;5485;37.558;126.950;2023-09-19T08:13:46;21.58;;;19.48;;
10863;SDS011;5485;37.558;126.950;2023-09-19T08:16:15;20.45;;;18.48;;
10863;SDS011;5485;37.558;126.950;2023-09-19T08:18:46;22.33;;;20.13;;
10863;SDS011;5485;37.558;126.950;2023-09-19T08:21:23;19.85;;;18.02;;
10863;SDS011;5485;37.558;126.950;2023-09-19T08:23:51;21.00;;;18.80;;
10863;SDS011;5485;37.558;126.950;2023-09-19T08:26:18;19.85;;;18.25;;
10863;SDS011;5485;37.558;126.950;2023-09-19T08:28:46;20.85;;;18.70;;
10863;SDS011;5485;37.558;126.950;2023-09-19T08:31:13;20.27;;;18.55;;
10863;SDS011;5485;37.558;126.950;2023-09-19T08:33:42;21.27;;;19.20;;
10863;SDS011;5485;37.558;126.950;2023-09-19T08:36:14;20.83;;;18.90;;
10863;SDS011;5485;37.558;126.950;2023-09-19T08:38:41;22.65;;;20.42;;
10863;SDS011;5485;37.558;126.950;2023-09-19T08:41:10;20.98;;;18.80;;
10863;SDS011;5485;37.558;126.950;2023-09-19T08:43:37;22.40;;;20.25;;
10863;SDS011;5485;37.558;126.950;2023-09-19T08:48:31;20.67;;;18.85;;
10863;SDS011;5485;37.558;126.950;2023-09-19T08:51:06;22.13;;;19.88;;
10863;SDS011;5485;37.558;126.950;2023-09-19T08:56:14;20.83;;;18.40;;
10863;SDS011;5485;37.558;126.950;2023-09-19T09:01:29;20.70;;;18.58;;
10863;SDS011;5485;37.558;126.950;2023-09-19T09:03:57;20.52;;;18.73;;
10863;SDS011;5485;37.558;126.950;2023-09-19T09:06:25;19.40;;;17.63;;
10863;SDS011;5485;37.558;126.950;2023-09-19T09:08:55;18.92;;;17.02;;
10863;SDS011;5485;37.558;126.950;2023-09-19T09:11:28;18.75;;;16.95;;
10863;SDS011;5485;37.558;126.950;2023-09-19T09:13:55;18.75;;;17.15;;
10863;SDS011;5485;37.558;126.950;2023-09-19T09:16:28;18.25;;;16.63;;
10863;SDS011;5485;37.558;126.950;2023-09-19T09:18:56;18.25;;;16.58;;
10863;SDS011;5485;37.558;126.950;2023-09-19T09:21:26;20.15;;;18.15;;
10863;SDS011;5485;37.558;126.950;2023-09-19T09:23:54;18.67;;;16.83;;
10863;SDS011;5485;37.558;126.950;2023-09-19T09:29:12;20.75;;;18.95;;
10863;SDS011;5485;37.558;126.950;2023-09-19T09:31:40;22.45;;;20.17;;
10863;SDS011;5485;37.558;126.950;2023-09-19T09:34:10;20.95;;;19.02;;
10863;SDS011;5485;37.558;126.950;2023-09-19T09:36:39;20.73;;;18.77;;
10863;SDS011;5485;37.558;126.950;2023-09-19T09:39:09;20.90;;;18.90;;
10863;SDS011;5485;37.558;126.950;2023-09-19T09:41:50;22.40;;;20.00;;
10863;SDS011;5485;37.558;126.950;2023-09-19T09:44:17;20.48;;;18.50;;
10863;SDS011;5485;37.558;126.950;2023-09-19T09:46:48;21.77;;;20.00;;
10863;SDS011;5485;37.558;126.950;2023-09-19T09:49:24;22.08;;;20.02;;
10863;SDS011;5485;37.558;126.950;2023-09-19T09:52:05;24.05;;;21.65;;
10863;SDS011;5485;37.558;126.950;2023-09-19T09:55:03;22.88;;;20.52;;
10863;SDS011;5485;37.558;126.950;2023-09-19T09:57:31;23.33;;;21.25;;
10863;SDS011;5485;37.558;126.950;2023-09-19T09:59:59;21.77;;;19.67;;
10863;SDS011;5485;37.558;126.950;2023-09-19T10:02:45;23.45;;;21.27;;
10863;SDS011;5485;37.558;126.950;2023-09-19T10:05:13;21.55;;;19.60;;
10863;SDS011;5485;37.558;126.950;2023-09-19T10:07:53;21.20;;;19.20;;
10863;SDS011;5485;37.558;126.950;2023-09-19T10:10:40;23.85;;;21.67;;
10863;SDS011;5485;37.558;126.950;2023-09-19T10:13:07;25.00;;;22.80;;
10863;SDS011;5485;37.558;126.950;2023-09-19T10:15:50;25.40;;;23.13;;
10863;SDS011;5485;37.558;126.950;2023-09-19T10:18:24;25.00;;;22.92;;
10863;SDS011;5485;37.558;126.950;2023-09-19T10:20:53;26.73;;;23.88;;
10863;SDS011;5485;37.558;126.950;2023-09-19T10:23:20;23.85;;;21.70;;
10863;SDS011;5485;37.558;126.950;2023-09-19T10:25:52;25.10;;;22.60;;
10863;SDS011;5485;37.558;126.950;2023-09-19T10:28:20;22.92;;;20.98;;
10863;SDS011;5485;37.558;126.950;2023-09-19T10:30:47;21.27;;;19.30;;
10863;SDS011;5485;37.558;126.950;2023-09-19T10:33:19;23.10;;;21.08;;
10863;SDS011;5485;37.558;126.950;2023-09-19T10:35:48;23.88;;;21.75;;
10863;SDS011;5485;37.558;126.950;2023-09-19T10:38:25;24.55;;;22.25;;
10863;SDS011;5485;37.558;126.950;2023-09-19T10:40:55;22.90;;;20.65;;
10863;SDS011;5485;37.558;126.950;2023-09-19T10:43:30;21.67;;;19.77;;
10863;SDS011;5485;37.558;126.950;2023-09-19T10:46:01;22.15;;;20.20;;
10863;SDS011;5485;37.558;126.950;2023-09-19T10:48:34;20.52;;;18.65;;
10863;SDS011;5485;37.558;126.950;2023-09-19T10:53:55;21.33;;;19.42;;
10863;SDS011;5485;37.558;126.950;2023-09-19T10:56:33;23.73;;;21.30;;
10863;SDS011;5485;37.558;126.950;2023-09-19T10:59:11;20.75;;;18.80;;
10863;SDS011;5485;37.558;126.950;2023-09-19T11:01:47;21.67;;;19.67;;
10863;SDS011;5485;37.558;126.950;2023-09-19T11:09:57;21.90;;;19.90;;
10863;SDS011;5485;37.558;126.950;2023-09-19T11:15:06;23.63;;;21.42;;
10863;SDS011;5485;37.558;126.950;2023-09-19T11:17:36;25.40;;;22.73;;
10863;SDS011;5485;37.558;126.950;2023-09-19T11:30:44;24.73;;;22.27;;
10863;SDS011;5485;37.558;126.950;2023-09-19T11:49:18;25.75;;;23.08;;
10863;SDS011;5485;37.558;126.950;2023-09-19T11:51:51;26.10;;;23.73;;
10863;SDS011;5485;37.558;126.950;2023-09-19T11:54:19;25.73;;;23.15;;
10863;SDS011;5485;37.558;126.950;2023-09-19T11:56:51;23.50;;;21.35;;
10863;SDS011;5485;37.558;126.950;2023-09-19T11:59:22;23.65;;;21.65;;
10863;SDS011;5485;37.558;126.950;2023-09-19T12:01:57;25.42;;;22.92;;
10863;SDS011;5485;37.558;126.950;2023-09-19T12:04:36;26.80;;;23.45;;
10863;SDS011;5485;37.558;126.950;2023-09-19T12:07:08;24.67;;;22.48;;
10863;SDS011;5485;37.558;126.950;2023-09-19T12:09:40;25.48;;;23.20;;
10863;SDS011;5485;37.558;126.950;2023-09-19T12:12:18;28.83;;;25.90;;
10863;SDS011;5485;37.558;126.950;2023-09-19T12:14:49;25.67;;;23.40;;
10863;SDS011;5485;37.558;126.950;2023-09-19T12:17:17;25.90;;;23.00;;
10863;SDS011;5485;37.558;126.950;2023-09-19T12:19:55;26.75;;;24.17;;
10863;SDS011;5485;37.558;126.950;2023-09-19T12:22:22;25.15;;;22.85;;
10863;SDS011;5485;37.558;126.950;2023-09-19T12:24:50;24.80;;;22.55;;
10863;SDS011;5485;37.558;126.950;2023-09-19T12:27:19;26.35;;;23.95;;
10863;SDS011;5485;37.558;126.950;2023-09-19T12:29:48;27.95;;;24.92;;
10863;SDS011;5485;37.558;126.950;2023-09-19T12:32:15;26.73;;;23.75;;
10863;SDS011;5485;37.558;126.950;2023-09-19T12:34:54;25.35;;;22.98;;
10863;SDS011;5485;37.558;126.950;2023-09-19T12:37:20;25.58;;;22.90;;
10863;SDS011;5485;37.558;126.950;2023-09-19T12:39:51;25.23;;;22.90;;
10863;SDS011;5485;37.558;126.950;2023-09-19T12:42:21;23.92;;;21.83;;
10863;SDS011;5485;37.558;126.950;2023-09-19T12:44:52;24.73;;;22.40;;
10863;SDS011;5485;37.558;126.950;2023-09-19T12:47:23;24.80;;;22.35;;
10863;SDS011;5485;37.558;126.950;2023-09-19T12:52:53;25.20;;;22.95;;
10863;SDS011;5485;37.558;126.950;2023-09-19T12:55:22;23.40;;;21.30;;
10863;SDS011;5485;37.558;126.950;2023-09-19T12:58:12;23.13;;;21.23;;
10863;SDS011;5485;37.558;126.950;2023-09-19T13:00:41;28.25;;;25.42;;
10863;SDS011;5485;37.558;126.950;2023-09-19T13:05:52;28.83;;;24.90;;
10863;SDS011;5485;37.558;126.950;2023-09-19T13:08:21;27.52;;;24.83;;
10863;SDS011;5485;37.558;126.950;2023-09-19T13:11:01;27.35;;;25.00;;
10863;SDS011;5485;37.558;126.950;2023-09-19T13:13:27;27.77;;;25.27;;
10863;SDS011;5485;37.558;126.950;2023-09-19T13:15:55;27.23;;;24.83;;
10863;SDS011;5485;37.558;126.950;2023-09-19T13:18:27;30.27;;;27.45;;
10863;SDS011;5485;37.558;126.950;2023-09-19T13:21:11;28.40;;;25.60;;
10863;SDS011;5485;37.558;126.950;2023-09-19T13:23:51;27.27;;;24.67;;
10863;SDS011;5485;37.558;126.950;2023-09-19T13:26:27;28.75;;;26.05;;
10863;SDS011;5485;37.558;126.950;2023-09-19T13:28:54;29.33;;;26.65;;
10863;SDS011;5485;37.558;126.950;2023-09-19T13:31:23;30.55;;;27.65;;
10863;SDS011;5485;37.558;126.950;2023-09-19T13:33:50;31.88;;;28.95;;
10863;SDS011;5485;37.558;126.950;2023-09-19T13:36:17;30.63;;;27.85;;
10863;SDS011;5485;37.558;126.950;2023-09-19T13:38:44;30.63;;;27.60;;
10863;SDS011;5485;37.558;126.950;2023-09-19T13:41:14;28.58;;;26.08;;
10863;SDS011;5485;37.558;126.950;2023-09-19T13:43:41;29.70;;;26.77;;
10863;SDS011;5485;37.558;126.950;2023-09-19T13:46:13;29.80;;;27.10;;
10863;SDS011;5485;37.558;126.950;2023-09-19T13:48:43;27.50;;;25.00;;
10863;SDS011;5485;37.558;126.950;2023-09-19T13:51:10;27.63;;;25.13;;
10863;SDS011;5485;37.558;126.950;2023-09-19T13:53:37;27.63;;;25.13;;
10863;SDS011;5485;37.558;126.950;2023-09-19T13:56:04;28.63;;;25.92;;
10863;SDS011;5485;37.558;126.950;2023-09-19T13:58:32;28.77;;;26.23;;
10863;SDS011;5485;37.558;126.950;2023-09-19T14:01:04;25.05;;;22.92;;
10863;SDS011;5485;37.558;126.950;2023-09-19T14:03:31;28.45;;;25.88;;
10863;SDS011;5485;37.558;126.950;2023-09-19T14:06:04;25.83;;;23.45;;
10863;SDS011;5485;37.558;126.950;2023-09-19T14:08:31;22.52;;;20.42;;
10863;SDS011;5485;37.558;126.950;2023-09-19T14:11:05;25.70;;;23.30;;
10863;SDS011;5485;37.558;126.950;2023-09-19T14:13:33;28.17;;;25.63;;
10863;SDS011;5485;37.558;126.950;2023-09-19T14:16:06;26.27;;;23.98;;
10863;SDS011;5485;37.558;126.950;2023-09-19T14:18:34;26.50;;;24.40;;
10863;SDS011;5485;37.558;126.950;2023-09-19T14:21:04;25.95;;;23.63;;
10863;SDS011;5485;37.558;126.950;2023-09-19T14:23:35;24.35;;;21.95;;
10863;SDS011;5485;37.558;126.950;2023-09-19T14:26:06;25.63;;;23.38;;
10863;SDS011;5485;37.558;126.950;2023-09-19T14:28:34;25.88;;;23.67;;
10863;SDS011;5485;37.558;126.950;2023-09-19T14:31:08;30.35;;;27.55;;
10863;SDS011;5485;37.558;126.950;2023-09-19T14:33:35;29.30;;;26.90;;
10863;SDS011;5485;37.558;126.950;2023-09-19T14:36:07;31.48;;;28.55;;
10863;SDS011;5485;37.558;126.950;2023-09-19T14:38:36;28.15;;;25.58;;
10863;SDS011;5485;37.558;126.950;2023-09-19T14:41:13;25.58;;;23.08;;
10863;SDS011;5485;37.558;126.950;2023-09-19T14:43:39;26.15;;;23.83;;
10863;SDS011;5485;37.558;126.950;2023-09-19T14:46:07;26.35;;;24.10;;
10863;SDS011;5485;37.558;126.950;2023-09-19T14:48:35;27.65;;;25.08;;
10863;SDS011;5485;37.558;126.950;2023-09-19T14:51:09;29.55;;;26.67;;
10863;SDS011;5485;37.558;126.950;2023-09-19T14:53:40;28.98;;;26.38;;
10863;SDS011;5485;37.558;126.950;2023-09-19T14:56:08;29.88;;;26.90;;
10863;SDS011;5485;37.558;126.950;2023-09-19T14:58:37;31.27;;;28.35;;
10863;SDS011;5485;37.558;126.950;2023-09-19T15:01:07;28.77;;;26.15;;
10863;SDS011;5485;37.558;126.950;2023-09-19T15:03:41;32.63;;;29.58;;
10863;SDS011;5485;37.558;126.950;2023-09-19T15:06:09;35.42;;;31.80;;
10863;SDS011;5485;37.558;126.950;2023-09-19T15:08:41;35.40;;;31.95;;
10863;SDS011;5485;37.558;126.950;2023-09-19T15:11:18;33.85;;;30.75;;
10863;SDS011;5485;37.558;126.950;2023-09-19T15:13:46;33.78;;;30.52;;
10863;SDS011;5485;37.558;126.950;2023-09-19T15:16:14;30.33;;;27.50;;
10863;SDS011;5485;37.558;126.950;2023-09-19T15:18:41;32.30;;;29.35;;
10863;SDS011;5485;37.558;126.950;2023-09-19T15:21:10;33.80;;;30.67;;
10863;SDS011;5485;37.558;126.950;2023-09-19T15:23:39;33.65;;;30.42;;
10863;SDS011;5485;37.558;126.950;2023-09-19T15:26:09;31.60;;;28.73;;
10863;SDS011;5485;37.558;126.950;2023-09-19T15:28:37;32.60;;;29.70;;
10863;SDS011;5485;37.558;126.950;2023-09-19T15:31:05;34.13;;;30.77;;
10863;SDS011;5485;37.558;126.950;2023-09-19T15:33:34;34.38;;;30.90;;